sensor_id;sensor_type;location;lat;lon;timestamp;temperature;humidity
12025;DHT22;6073;53.230;10.444;2024-01-15T00:02:08;1.70;99.90
12025;DHT22;6073;53.230;10.444;2024-01-15T00:04:38;1.70;99.90
12025;DHT22;6073;53.230;10.444;2024-01-15T00:07:05;1.70;99.90
12025;DHT22;6073;53.230;10.444;2024-01-15T00:09:30;1.70;99.90
12025;DHT22;6073;53.230;10.444;2024-01-15T00:11:56;1.70;99.90
12025;DHT22;6073;53.230;10.444;2024-01-15T00:14:22;1.60;99.90
12025;DHT22;6073;53.230;10.444;2024-01-15T00:16:48;1.60;99.90
12025;DHT22;6073;53.230;10.444;2024-01-15T00:19:19;1.60;99.90
12025;DHT22;6073;53.230;10.444;2024-01-15T00:21:45;1.50;99.90
12025;DHT22;6073;53.230;10.444;2024-01-15T00:24:10;1.50;99.90
12025;DHT22;6073;53.230;10.444;2024-01-15T00:26:36;1.50;99.90
12025;DHT22;6073;53.230;10.444;2024-01-15T00:29:02;1.50;99.90
12025;DHT22;6073;53.230;10.444;2024-01-15T00:31:29;1.40;99.90
12025;DHT22;6073;53.230;10.444;2024-01-15T00:33:55;1.50;99.90
12025;DHT22;6073;53.230;10.444;2024-01-15T00:36:21;1.50;99.90
12025;DHT22;6073;53.230;10.444;2024-01-15T00:38:46;1.50;99.90
12025;DHT22;6073;53.230;10.444;2024-01-15T00:41:13;1.60;99.90
12025;DHT22;6073;53.230;10.444;2024-01-15T00:43:38;1.70;99.90
12025;DHT22;6073;53.230;10.444;2024-01-15T00:46:04;1.70;99.90
12025;DHT22;6073;53.230;10.444;2024-01-15T00:48:30;1.80;99.90
12025;DHT22;6073;53.230;10.444;2024-01-15T00:50:56;1.80;99.90
12025;DHT22;6073;53.230;10.444;2024-01-15T00:53:21;1.80;99.90
12025;DHT22;6073;53.230;10.444;2024-01-15T00:55:48;1.80;99.90
12025;DHT22;6073;53.230;10.444;2024-01-15T00:58:14;1.80;99.90
12025;DHT22;6073;53.230;10.444;2024-01-15T01:00:39;1.70;99.90
12025;DHT22;6073;53.230;10.444;2024-01-15T01:03:05;1.70;99.90
12025;DHT22;6073;53.230;10.444;2024-01-15T01:05:30;1.70;99.90
12025;DHT22;6073;53.230;10.444;2024-01-15T01:07:56;1.80;99.90
12025;DHT22;6073;53.230;10.444;2024-01-15T01:10:21;1.70;99.90
12025;DHT22;6073;53.230;10.444;2024-01-15T01:12:47;1.80;99.90
12025;DHT22;6073;53.230;10.444;2024-01-15T01:15:12;1.70;99.90
12025;DHT22;6073;53.230;10.444;2024-01-15T01:17:38;1.70;99.90
12025;DHT22;6073;53.230;10.444;2024-01-15T01:20:03;1.70;99.90
12025;DHT22;6073;53.230;10.444;2024-01-15T01:22:31;1.70;99.90
12025;DHT22;6073;53.230;10.444;2024-01-15T01:24:57;1.80;99.90
12025;DHT22;6073;53.230;10.444;2024-01-15T01:27:22;1.90;99.90
12025;DHT22;6073;53.230;10.444;2024-01-15T01:29:48;1.90;99.90
12025;DHT22;6073;53.230;10.444;2024-01-15T01:32:13;2.00;99.90
12025;DHT22;6073;53.230;10.444;2024-01-15T01:34:42;2.00;99.90
12025;DHT22;6073;53.230;10.444;2024-01-15T01:37:08;2.00;99.90
12025;DHT22;6073;53.230;10.444;2024-01-15T01:39:34;2.00;99.90
12025;DHT22;6073;53.230;10.444;2024-01-15T01:41:59;2.00;99.90
12025;DHT22;6073;53.230;10.444;2024-01-15T01:44:25;2.00;99.90
12025;DHT22;6073;53.230;10.444;2024-01-15T01:46:50;2.00;99.90
12025;DHT22;6073;53.230;10.444;2024-01-15T01:49:16;1.90;99.90
12025;DHT22;6073;53.230;10.444;2024-01-15T01:51:42;1.80;99.90
12025;DHT22;6073;53.230;10.444;2024-01-15T01:54:09;1.80;99.90
12025;DHT22;6073;53.230;10.444;2024-01-15T01:56:37;1.80;99.90
12025;DHT22;6073;53.230;10.444;2024-01-15T01:59:04;1.80;99.90
12025;DHT22;6073;53.230;10.444;2024-01-15T02:01:31;1.70;99.90
12025;DHT22;6073;53.230;10.444;2024-01-15T02:03:57;1.80;99.90
12025;DHT22;6073;53.230;10.444;2024-01-15T02:06:23;1.70;99.90
12025;DHT22;6073;53.230;10.444;2024-01-15T02:08:50;1.80;99.90
12025;DHT22;6073;53.230;10.444;2024-01-15T02:11:15;1.80;99.90
12025;DHT22;6073;53.230;10.444;2024-01-15T02:13:41;1.80;99.90
12025;DHT22;6073;53.230;10.444;2024-01-15T02:16:06;1.70;99.90
12025;DHT22;6073;53.230;10.444;2024-01-15T02:18:42;1.70;99.90
12025;DHT22;6073;53.230;10.444;2024-01-15T02:21:09;1.70;99.90
12025;DHT22;6073;53.230;10.444;2024-01-15T02:23:34;1.80;99.90
12025;DHT22;6073;53.230;10.444;2024-01-15T02:26:00;1.70;99.90
12025;DHT22;6073;53.230;10.444;2024-01-15T02:28:26;1.70;99.90
12025;DHT22;6073;53.230;10.444;2024-01-15T02:30:52;1.60;99.90
12025;DHT22;6073;53.230;10.444;2024-01-15T02:33:17;1.60;99.90
12025;DHT22;6073;53.230;10.444;2024-01-15T02:35:43;1.50;99.90
12025;DHT22;6073;53.230;10.444;2024-01-15T02:38:09;1.50;99.90
12025;DHT22;6073;53.230;10.444;2024-01-15T02:40:35;1.50;99.90
12025;DHT22;6073;53.230;10.444;2024-01-15T02:43:00;1.50;99.90
12025;DHT22;6073;53.230;10.444;2024-01-15T02:45:26;1.40;99.90
12025;DHT22;6073;53.230;10.444;2024-01-15T02:47:52;1.30;99.90
12025;DHT22;6073;53.230;10.444;2024-01-15T02:50:17;1.30;99.90
12025;DHT22;6073;53.230;10.444;2024-01-15T02:52:43;1.40;99.90
12025;DHT22;6073;53.230;10.444;2024-01-15T02:55:08;1.40;99.90
12025;DHT22;6073;53.230;10.444;2024-01-15T02:57:35;1.40;99.90
12025;DHT22;6073;53.230;10.444;2024-01-15T03:00:01;1.50;99.90
12025;DHT22;6073;53.230;10.444;2024-01-15T03:02:26;1.50;99.90
12025;DHT22;6073;53.230;10.444;2024-01-15T03:04:52;1.60;99.90
12025;DHT22;6073;53.230;10.444;2024-01-15T03:07:17;1.60;99.90
12025;DHT22;6073;53.230;10.444;2024-01-15T03:09:43;1.60;99.90
12025;DHT22;6073;53.230;10.444;2024-01-15T03:12:09;1.70;99.90
12025;DHT22;6073;53.230;10.444;2024-01-15T03:14:35;1.60;99.90
12025;DHT22;6073;53.230;10.444;2024-01-15T03:17:01;1.50;99.90
12025;DHT22;6073;53.230;10.444;2024-01-15T03:19:27;1.50;99.90
12025;DHT22;6073;53.230;10.444;2024-01-15T03:21:52;1.50;99.90
12025;DHT22;6073;53.230;10.444;2024-01-15T06:15:45;1.50;99.90
12025;DHT22;6073;53.230;10.444;2024-01-15T06:18:10;1.60;99.90
12025;DHT22;6073;53.230;10.444;2024-01-15T06:20:36;1.60;99.90
12025;DHT22;6073;53.230;10.444;2024-01-15T06:23:01;1.60;99.90
12025;DHT22;6073;53.230;10.444;2024-01-15T06:25:27;1.70;99.90
12025;DHT22;6073;53.230;10.444;2024-01-15T06:27:53;1.70;99.90
12025;DHT22;6073;53.230;10.444;2024-01-15T06:30:18;1.70;99.90
12025;DHT22;6073;53.230;10.444;2024-01-15T06:32:44;1.70;99.90
12025;DHT22;6073;53.230;10.444;2024-01-15T06:35:09;1.80;99.90
12025;DHT22;6073;53.230;10.444;2024-01-15T06:37:36;1.80;99.90
12025;DHT22;6073;53.230;10.444;2024-01-15T06:40:02;1.90;99.90
12025;DHT22;6073;53.230;10.444;2024-01-15T06:42:28;1.80;99.90
12025;DHT22;6073;53.230;10.444;2024-01-15T06:44:53;1.80;99.90
12025;DHT22;6073;53.230;10.444;2024-01-15T06:47:19;1.80;99.90
12025;DHT22;6073;53.230;10.444;2024-01-15T06:49:44;1.80;99.90
12025;DHT22;6073;53.230;10.444;2024-01-15T06:52:10;1.90;99.90
12025;DHT22;6073;53.230;10.444;2024-01-15T06:54:37;1.90;99.90
12025;DHT22;6073;53.230;10.444;2024-01-15T06:57:03;1.90;99.90
12025;DHT22;6073;53.230;10.444;2024-01-15T06:59:29;1.90;99.90
12025;DHT22;6073;53.230;10.444;2024-01-15T07:01:55;1.90;99.90
12025;DHT22;6073;53.230;10.444;2024-01-15T07:04:20;1.90;99.90
12025;DHT22;6073;53.230;10.444;2024-01-15T07:06:46;1.80;99.90
12025;DHT22;6073;53.230;10.444;2024-01-15T07:09:13;1.80;99.90
12025;DHT22;6073;53.230;10.444;2024-01-15T07:11:43;1.80;99.90
12025;DHT22;6073;53.230;10.444;2024-01-15T07:14:09;1.70;99.90
12025;DHT22;6073;53.230;10.444;2024-01-15T07:16:34;1.70;99.90
12025;DHT22;6073;53.230;10.444;2024-01-15T07:19:00;1.70;99.90
12025;DHT22;6073;53.230;10.444;2024-01-15T07:21:26;1.70;99.90
12025;DHT22;6073;53.230;10.444;2024-01-15T07:23:51;1.70;99.90
12025;DHT22;6073;53.230;10.444;2024-01-15T07:26:17;1.70;99.90
12025;DHT22;6073;53.230;10.444;2024-01-15T07:28:42;1.70;99.90
12025;DHT22;6073;53.230;10.444;2024-01-15T07:31:08;1.60;99.90
12025;DHT22;6073;53.230;10.444;2024-01-15T07:33:34;1.60;99.90
12025;DHT22;6073;53.230;10.444;2024-01-15T07:35:59;1.60;99.90
12025;DHT22;6073;53.230;10.444;2024-01-15T07:38:25;1.60;99.90
12025;DHT22;6073;53.230;10.444;2024-01-15T07:40:51;1.60;99.90
12025;DHT22;6073;53.230;10.444;2024-01-15T07:43:16;1.70;99.90
12025;DHT22;6073;53.230;10.444;2024-01-15T07:45:42;1.70;99.90
12025;DHT22;6073;53.230;10.444;2024-01-15T07:48:07;1.70;99.90
12025;DHT22;6073;53.230;10.444;2024-01-15T07:50:33;1.70;99.90
12025;DHT22;6073;53.230;10.444;2024-01-15T07:52:58;1.70;99.90
12025;DHT22;6073;53.230;10.444;2024-01-15T07:55:24;1.70;99.90
12025;DHT22;6073;53.230;10.444;2024-01-15T07:57:49;1.80;99.90
12025;DHT22;6073;53.230;10.444;2024-01-15T08:00:15;1.70;99.90
12025;DHT22;6073;53.230;10.444;2024-01-15T08:02:41;1.70;99.90
12025;DHT22;6073;53.230;10.444;2024-01-15T08:05:06;1.80;99.90
12025;DHT22;6073;53.230;10.444;2024-01-15T08:07:32;1.80;99.90
12025;DHT22;6073;53.230;10.444;2024-01-15T08:09:58;1.90;99.90
12025;DHT22;6073;53.230;10.444;2024-01-15T08:12:23;1.90;99.90
12025;DHT22;6073;53.230;10.444;2024-01-15T08:14:49;1.90;99.90
12025;DHT22;6073;53.230;10.444;2024-01-15T08:17:14;1.80;99.90
12025;DHT22;6073;53.230;10.444;2024-01-15T08:19:41;1.80;99.90
12025;DHT22;6073;53.230;10.444;2024-01-15T08:22:07;1.80;99.90
12025;DHT22;6073;53.230;10.444;2024-01-15T08:24:33;1.80;99.90
12025;DHT22;6073;53.230;10.444;2024-01-15T08:26:58;1.70;99.90
12025;DHT22;6073;53.230;10.444;2024-01-15T08:29:24;1.70;99.90
12025;DHT22;6073;53.230;10.444;2024-01-15T08:31:50;1.70;99.90
12025;DHT22;6073;53.230;10.444;2024-01-15T08:34:16;1.70;99.90
12025;DHT22;6073;53.230;10.444;2024-01-15T08:36:41;1.70;99.90
12025;DHT22;6073;53.230;10.444;2024-01-15T08:39:07;1.70;99.90
12025;DHT22;6073;53.230;10.444;2024-01-15T08:41:34;1.70;99.90
12025;DHT22;6073;53.230;10.444;2024-01-15T08:44:00;1.70;99.90
12025;DHT22;6073;53.230;10.444;2024-01-15T08:46:25;1.60;99.90
12025;DHT22;6073;53.230;10.444;2024-01-15T08:48:51;1.60;99.90
12025;DHT22;6073;53.230;10.444;2024-01-15T08:51:16;1.60;99.90
12025;DHT22;6073;53.230;10.444;2024-01-15T08:53:44;1.70;99.90
12025;DHT22;6073;53.230;10.444;2024-01-15T08:56:09;1.70;99.90
12025;DHT22;6073;53.230;10.444;2024-01-15T08:58:35;1.70;99.90
12025;DHT22;6073;53.230;10.444;2024-01-15T09:01:00;1.70;99.90
12025;DHT22;6073;53.230;10.444;2024-01-15T09:03:26;1.70;99.90
12025;DHT22;6073;53.230;10.444;2024-01-15T09:05:52;1.70;99.90
12025;DHT22;6073;53.230;10.444;2024-01-15T09:08:17;1.80;99.90
12025;DHT22;6073;53.230;10.444;2024-01-15T09:10:43;1.80;99.90
12025;DHT22;6073;53.230;10.444;2024-01-15T09:13:09;1.80;99.90
12025;DHT22;6073;53.230;10.444;2024-01-15T09:15:34;1.80;99.90
12025;DHT22;6073;53.230;10.444;2024-01-15T09:18:00;1.80;99.90
12025;DHT22;6073;53.230;10.444;2024-01-15T09:20:27;1.70;99.90
12025;DHT22;6073;53.230;10.444;2024-01-15T09:22:53;1.70;99.90
12025;DHT22;6073;53.230;10.444;2024-01-15T09:25:19;1.70;99.90
12025;DHT22;6073;53.230;10.444;2024-01-15T09:27:49;1.60;99.90
12025;DHT22;6073;53.230;10.444;2024-01-15T09:30:17;1.60;99.90
12025;DHT22;6073;53.230;10.444;2024-01-15T09:32:42;1.70;99.90
12025;DHT22;6073;53.230;10.444;2024-01-15T09:35:09;1.70;99.90
12025;DHT22;6073;53.230;10.444;2024-01-15T09:37:34;1.70;99.90
12025;DHT22;6073;53.230;10.444;2024-01-15T09:40:00;1.70;99.90
12025;DHT22;6073;53.230;10.444;2024-01-15T09:42:26;1.70;99.90
12025;DHT22;6073;53.230;10.444;2024-01-15T09:44:52;1.70;99.90
12025;DHT22;6073;53.230;10.444;2024-01-15T09:47:19;1.90;99.90
12025;DHT22;6073;53.230;10.444;2024-01-15T09:49:45;1.80;99.90
12025;DHT22;6073;53.230;10.444;2024-01-15T09:52:11;1.90;99.90
12025;DHT22;6073;53.230;10.444;2024-01-15T09:54:37;1.90;99.90
12025;DHT22;6073;53.230;10.444;2024-01-15T09:57:04;1.90;99.90
12025;DHT22;6073;53.230;10.444;2024-01-15T09:59:30;1.90;99.90
12025;DHT22;6073;53.230;10.444;2024-01-15T10:01:57;2.00;99.90
12025;DHT22;6073;53.230;10.444;2024-01-15T10:04:24;2.00;99.90
12025;DHT22;6073;53.230;10.444;2024-01-15T10:06:51;2.10;99.90
12025;DHT22;6073;53.230;10.444;2024-01-15T10:09:17;2.30;99.90
12025;DHT22;6073;53.230;10.444;2024-01-15T10:11:43;2.40;99.90
12025;DHT22;6073;53.230;10.444;2024-01-15T10:14:09;2.60;99.90
12025;DHT22;6073;53.230;10.444;2024-01-15T10:16:38;2.60;99.90
12025;DHT22;6073;53.230;10.444;2024-01-15T10:19:04;2.70;99.90
12025;DHT22;6073;53.230;10.444;2024-01-15T10:21:32;2.60;99.90
12025;DHT22;6073;53.230;10.444;2024-01-15T10:24:00;2.50;99.90
12025;DHT22;6073;53.230;10.444;2024-01-15T10:26:26;2.30;99.90
12025;DHT22;6073;53.230;10.444;2024-01-15T10:28:51;2.30;99.90
12025;DHT22;6073;53.230;10.444;2024-01-15T10:31:20;2.20;99.90
12025;DHT22;6073;53.230;10.444;2024-01-15T10:33:50;2.10;99.90
12025;DHT22;6073;53.230;10.444;2024-01-15T10:36:16;2.00;99.90
12025;DHT22;6073;53.230;10.444;2024-01-15T10:38:46;2.10;99.90
12025;DHT22;6073;53.230;10.444;2024-01-15T10:41:12;2.10;99.90
12025;DHT22;6073;53.230;10.444;2024-01-15T10:43:38;2.10;99.90
12025;DHT22;6073;53.230;10.444;2024-01-15T10:46:06;2.00;99.90
12025;DHT22;6073;53.230;10.444;2024-01-15T10:48:33;2.10;99.90
12025;DHT22;6073;53.230;10.444;2024-01-15T10:51:01;2.10;99.90
12025;DHT22;6073;53.230;10.444;2024-01-15T10:53:28;2.10;99.90
12025;DHT22;6073;53.230;10.444;2024-01-15T10:55:57;2.10;99.90
12025;DHT22;6073;53.230;10.444;2024-01-15T10:58:23;2.10;99.90
12025;DHT22;6073;53.230;10.444;2024-01-15T11:00:49;2.10;99.90
12025;DHT22;6073;53.230;10.444;2024-01-15T11:03:15;2.00;99.90
12025;DHT22;6073;53.230;10.444;2024-01-15T11:05:43;2.00;99.90
12025;DHT22;6073;53.230;10.444;2024-01-15T11:08:09;1.90;99.90
12025;DHT22;6073;53.230;10.444;2024-01-15T11:10:40;1.90;99.90
12025;DHT22;6073;53.230;10.444;2024-01-15T11:16:03;1.60;99.90
12025;DHT22;6073;53.230;10.444;2024-01-15T11:18:31;1.50;99.90
12025;DHT22;6073;53.230;10.444;2024-01-15T11:29:10;1.70;99.90
12025;DHT22;6073;53.230;10.444;2024-01-15T11:32:09;1.70;99.90
12025;DHT22;6073;53.230;10.444;2024-01-15T11:34:54;1.60;99.90
12025;DHT22;6073;53.230;10.444;2024-01-15T11:37:24;1.60;99.90
12025;DHT22;6073;53.230;10.444;2024-01-15T11:40:01;1.50;99.90
12025;DHT22;6073;53.230;10.444;2024-01-15T11:42:28;1.40;99.90
12025;DHT22;6073;53.230;10.444;2024-01-15T11:44:55;1.30;99.90
12025;DHT22;6073;53.230;10.444;2024-01-15T11:47:50;1.30;99.90
12025;DHT22;6073;53.230;10.444;2024-01-15T11:50:21;1.30;99.90
12025;DHT22;6073;53.230;10.444;2024-01-15T11:52:56;1.30;99.90
12025;DHT22;6073;53.230;10.444;2024-01-15T11:55:27;1.40;99.90
12025;DHT22;6073;53.230;10.444;2024-01-15T11:57:55;1.40;99.90
12025;DHT22;6073;53.230;10.444;2024-01-15T12:00:23;1.40;99.90
12025;DHT22;6073;53.230;10.444;2024-01-15T12:02:49;1.40;99.90
12025;DHT22;6073;53.230;10.444;2024-01-15T12:05:17;1.40;99.90
12025;DHT22;6073;53.230;10.444;2024-01-15T12:07:44;1.40;99.90
12025;DHT22;6073;53.230;10.444;2024-01-15T12:10:12;1.40;99.90
12025;DHT22;6073;53.230;10.444;2024-01-15T12:12:55;1.40;99.90
12025;DHT22;6073;53.230;10.444;2024-01-15T12:15:23;1.40;99.90
12025;DHT22;6073;53.230;10.444;2024-01-15T12:17:49;1.30;99.90
12025;DHT22;6073;53.230;10.444;2024-01-15T12:20:15;1.30;99.90
12025;DHT22;6073;53.230;10.444;2024-01-15T12:22:42;1.30;99.90
12025;DHT22;6073;53.230;10.444;2024-01-15T12:25:07;1.20;99.90
12025;DHT22;6073;53.230;10.444;2024-01-15T12:27:33;1.30;99.90
12025;DHT22;6073;53.230;10.444;2024-01-15T12:29:59;1.30;99.90
12025;DHT22;6073;53.230;10.444;2024-01-15T12:32:24;1.30;99.90
12025;DHT22;6073;53.230;10.444;2024-01-15T12:34:50;1.30;99.90
12025;DHT22;6073;53.230;10.444;2024-01-15T12:37:19;1.30;99.90
12025;DHT22;6073;53.230;10.444;2024-01-15T12:39:45;1.30;99.90
12025;DHT22;6073;53.230;10.444;2024-01-15T12:42:11;1.30;99.90
12025;DHT22;6073;53.230;10.444;2024-01-15T12:44:37;1.30;99.90
12025;DHT22;6073;53.230;10.444;2024-01-15T12:47:06;1.30;99.90
12025;DHT22;6073;53.230;10.444;2024-01-15T12:49:32;1.30;99.90
12025;DHT22;6073;53.230;10.444;2024-01-15T12:51:58;1.30;99.90
12025;DHT22;6073;53.230;10.444;2024-01-15T12:54:25;1.30;99.90
12025;DHT22;6073;53.230;10.444;2024-01-15T12:56:51;1.40;99.90
12025;DHT22;6073;53.230;10.444;2024-01-15T12:59:17;1.40;99.90
12025;DHT22;6073;53.230;10.444;2024-01-15T13:01:43;1.50;99.90
12025;DHT22;6073;53.230;10.444;2024-01-15T13:04:09;1.50;99.90
12025;DHT22;6073;53.230;10.444;2024-01-15T13:06:35;1.40;99.90
12025;DHT22;6073;53.230;10.444;2024-01-15T13:09:00;1.40;99.90
12025;DHT22;6073;53.230;10.444;2024-01-15T13:11:27;1.30;99.90
12025;DHT22;6073;53.230;10.444;2024-01-15T13:13:52;1.30;99.90
12025;DHT22;6073;53.230;10.444;2024-01-15T13:16:18;1.30;99.90
12025;DHT22;6073;53.230;10.444;2024-01-15T13:18:46;1.30;99.90
12025;DHT22;6073;53.230;10.444;2024-01-15T13:21:11;1.30;99.90
12025;DHT22;6073;53.230;10.444;2024-01-15T13:23:38;1.30;99.90
12025;DHT22;6073;53.230;10.444;2024-01-15T13:26:04;1.30;99.90
12025;DHT22;6073;53.230;10.444;2024-01-15T13:28:30;1.30;99.90
12025;DHT22;6073;53.230;10.444;2024-01-15T13:30:56;1.30;99.90
12025;DHT22;6073;53.230;10.444;2024-01-15T13:33:21;1.30;99.90
12025;DHT22;6073;53.230;10.444;2024-01-15T13:35:47;1.30;99.90
12025;DHT22;6073;53.230;10.444;2024-01-15T13:38:15;1.30;99.90
12025;DHT22;6073;53.230;10.444;2024-01-15T13:40:41;1.30;99.90
12025;DHT22;6073;53.230;10.444;2024-01-15T13:43:06;1.30;99.90
12025;DHT22;6073;53.230;10.444;2024-01-15T13:45:34;1.40;99.90
12025;DHT22;6073;53.230;10.444;2024-01-15T13:47:59;1.40;99.90
12025;DHT22;6073;53.230;10.444;2024-01-15T13:50:25;1.40;99.90
12025;DHT22;6073;53.230;10.444;2024-01-15T13:52:50;1.40;99.90
12025;DHT22;6073;53.230;10.444;2024-01-15T13:55:16;1.40;99.90
12025;DHT22;6073;53.230;10.444;2024-01-15T13:57:43;1.40;99.90
12025;DHT22;6073;53.230;10.444;2024-01-15T14:00:09;1.40;99.90
12025;DHT22;6073;53.230;10.444;2024-01-15T14:02:37;1.40;99.90
12025;DHT22;6073;53.230;10.444;2024-01-15T14:05:03;1.40;99.90
12025;DHT22;6073;53.230;10.444;2024-01-15T14:07:28;1.40;99.90
12025;DHT22;6073;53.230;10.444;2024-01-15T14:09:54;1.40;99.90
12025;DHT22;6073;53.230;10.444;2024-01-15T14:12:19;1.40;99.90
12025;DHT22;6073;53.230;10.444;2024-01-15T14:14:45;1.40;99.90
12025;DHT22;6073;53.230;10.444;2024-01-15T14:17:10;1.30;99.90
12025;DHT22;6073;53.230;10.444;2024-01-15T14:19:36;1.40;99.90
12025;DHT22;6073;53.230;10.444;2024-01-15T14:22:01;1.30;99.90
12025;DHT22;6073;53.230;10.444;2024-01-15T14:24:27;1.30;99.90
12025;DHT22;6073;53.230;10.444;2024-01-15T14:26:52;1.30;99.90
12025;DHT22;6073;53.230;10.444;2024-01-15T14:29:18;1.30;99.90
12025;DHT22;6073;53.230;10.444;2024-01-15T14:31:48;1.30;99.90
12025;DHT22;6073;53.230;10.444;2024-01-15T14:34:13;1.30;99.90
12025;DHT22;6073;53.230;10.444;2024-01-15T14:36:39;1.30;99.90
12025;DHT22;6073;53.230;10.444;2024-01-15T14:39:04;1.30;99.90
12025;DHT22;6073;53.230;10.444;2024-01-15T14:41:30;1.30;99.90
12025;DHT22;6073;53.230;10.444;2024-01-15T14:43:55;1.20;99.90
12025;DHT22;6073;53.230;10.444;2024-01-15T14:46:22;1.20;99.90
12025;DHT22;6073;53.230;10.444;2024-01-15T14:48:48;1.30;99.90
12025;DHT22;6073;53.230;10.444;2024-01-15T14:51:14;1.30;99.90
12025;DHT22;6073;53.230;10.444;2024-01-15T14:53:39;1.30;99.90
12025;DHT22;6073;53.230;10.444;2024-01-15T14:56:05;1.20;99.90
12025;DHT22;6073;53.230;10.444;2024-01-15T14:58:31;1.20;99.90
12025;DHT22;6073;53.230;10.444;2024-01-15T15:00:57;1.20;99.90
12025;DHT22;6073;53.230;10.444;2024-01-15T15:03:23;1.20;99.90
12025;DHT22;6073;53.230;10.444;2024-01-15T15:05:48;1.20;99.90
12025;DHT22;6073;53.230;10.444;2024-01-15T15:08:14;1.10;99.90
12025;DHT22;6073;53.230;10.444;2024-01-15T15:10:39;1.10;99.90
12025;DHT22;6073;53.230;10.444;2024-01-15T15:13:06;1.10;99.90
12025;DHT22;6073;53.230;10.444;2024-01-15T15:15:32;1.10;99.90
12025;DHT22;6073;53.230;10.444;2024-01-15T15:17:58;1.00;99.90
12025;DHT22;6073;53.230;10.444;2024-01-15T15:20:23;1.00;99.90
12025;DHT22;6073;53.230;10.444;2024-01-15T15:22:49;1.00;99.90
12025;DHT22;6073;53.230;10.444;2024-01-15T15:25:14;1.00;99.90
12025;DHT22;6073;53.230;10.444;2024-01-15T15:27:40;0.90;99.90
12025;DHT22;6073;53.230;10.444;2024-01-15T15:30:07;0.90;99.90
12025;DHT22;6073;53.230;10.444;2024-01-15T15:32:32;0.90;99.90
12025;DHT22;6073;53.230;10.444;2024-01-15T15:34:58;0.90;99.90
12025;DHT22;6073;53.230;10.444;2024-01-15T15:37:23;0.90;99.90
12025;DHT22;6073;53.230;10.444;2024-01-15T15:39:49;0.90;99.90
12025;DHT22;6073;53.230;10.444;2024-01-15T15:42:15;0.80;99.90
12025;DHT22;6073;53.230;10.444;2024-01-15T15:44:40;0.80;99.90
12025;DHT22;6073;53.230;10.444;2024-01-15T15:47:15;0.70;99.90
12025;DHT22;6073;53.230;10.444;2024-01-15T15:49:41;0.70;99.90
12025;DHT22;6073;53.230;10.444;2024-01-15T15:52:07;0.60;99.90
12025;DHT22;6073;53.230;10.444;2024-01-15T15:54:32;0.60;99.90
12025;DHT22;6073;53.230;10.444;2024-01-15T15:56:58;0.60;99.90
12025;DHT22;6073;53.230;10.444;2024-01-15T15:59:23;0.60;99.90
12025;DHT22;6073;53.230;10.444;2024-01-15T16:01:49;0.50;99.90
12025;DHT22;6073;53.230;10.444;2024-01-15T16:04:15;0.50;99.90
12025;DHT22;6073;53.230;10.444;2024-01-15T16:06:41;0.50;99.90
12025;DHT22;6073;53.230;10.444;2024-01-15T16:09:08;0.50;99.90
12025;DHT22;6073;53.230;10.444;2024-01-15T16:11:36;0.60;99.90
12025;DHT22;6073;53.230;10.444;2024-01-15T16:14:03;0.60;99.90
12025;DHT22;6073;53.230;10.444;2024-01-15T16:16:28;0.60;99.90
12025;DHT22;6073;53.230;10.444;2024-01-15T16:18:54;0.70;99.90
12025;DHT22;6073;53.230;10.444;2024-01-15T16:21:20;0.70;99.90
12025;DHT22;6073;53.230;10.444;2024-01-15T16:23:45;0.70;99.90
12025;DHT22;6073;53.230;10.444;2024-01-15T16:26:11;0.70;99.90
12025;DHT22;6073;53.230;10.444;2024-01-15T16:28:36;0.70;99.90
12025;DHT22;6073;53.230;10.444;2024-01-15T16:31:02;0.70;99.90
12025;DHT22;6073;53.230;10.444;2024-01-15T16:33:27;0.70;99.90
12025;DHT22;6073;53.230;10.444;2024-01-15T16:35:53;0.70;99.90
12025;DHT22;6073;53.230;10.444;2024-01-15T16:38:18;0.80;99.90
12025;DHT22;6073;53.230;10.444;2024-01-15T16:40:44;0.80;99.90
12025;DHT22;6073;53.230;10.444;2024-01-15T16:43:09;0.80;99.90
12025;DHT22;6073;53.230;10.444;2024-01-15T16:45:35;0.80;99.90
12025;DHT22;6073;53.230;10.444;2024-01-15T16:48:00;0.90;99.90
12025;DHT22;6073;53.230;10.444;2024-01-15T16:50:26;0.90;99.90
12025;DHT22;6073;53.230;10.444;2024-01-15T16:52:52;0.90;99.90
12025;DHT22;6073;53.230;10.444;2024-01-15T16:55:18;0.90;99.90
12025;DHT22;6073;53.230;10.444;2024-01-15T16:57:43;0.90;99.90
12025;DHT22;6073;53.230;10.444;2024-01-15T17:00:09;0.90;99.90
12025;DHT22;6073;53.230;10.444;2024-01-15T17:02:36;0.90;99.90
12025;DHT22;6073;53.230;10.444;2024-01-15T17:05:01;0.90;99.90
12025;DHT22;6073;53.230;10.444;2024-01-15T17:07:27;0.80;99.90
12025;DHT22;6073;53.230;10.444;2024-01-15T17:09:52;0.80;99.90
12025;DHT22;6073;53.230;10.444;2024-01-15T17:12:18;0.80;99.90
12025;DHT22;6073;53.230;10.444;2024-01-15T17:14:44;0.80;99.90
12025;DHT22;6073;53.230;10.444;2024-01-15T17:17:09;0.80;99.90
12025;DHT22;6073;53.230;10.444;2024-01-15T17:19:35;0.80;99.90
12025;DHT22;6073;53.230;10.444;2024-01-15T17:22:00;0.80;99.90
12025;DHT22;6073;53.230;10.444;2024-01-15T17:24:26;0.90;99.90
12025;DHT22;6073;53.230;10.444;2024-01-15T17:26:51;0.90;99.90
12025;DHT22;6073;53.230;10.444;2024-01-15T17:29:17;0.80;99.90
12025;DHT22;6073;53.230;10.444;2024-01-15T17:31:42;0.80;99.90
12025;DHT22;6073;53.230;10.444;2024-01-15T17:34:08;0.80;99.90
12025;DHT22;6073;53.230;10.444;2024-01-15T17:36:35;0.80;99.90
12025;DHT22;6073;53.230;10.444;2024-01-15T17:39:00;0.80;99.90
12025;DHT22;6073;53.230;10.444;2024-01-15T17:41:26;0.80;99.90
12025;DHT22;6073;53.230;10.444;2024-01-15T17:43:51;0.80;99.90
12025;DHT22;6073;53.230;10.444;2024-01-15T17:46:17;0.80;99.90
12025;DHT22;6073;53.230;10.444;2024-01-15T17:48:43;0.70;99.90
12025;DHT22;6073;53.230;10.444;2024-01-15T17:51:08;0.80;99.90
12025;DHT22;6073;53.230;10.444;2024-01-15T17:53:34;0.80;99.90
12025;DHT22;6073;53.230;10.444;2024-01-15T17:56:00;0.80;99.90
12025;DHT22;6073;53.230;10.444;2024-01-15T17:58:25;0.80;99.90
12025;DHT22;6073;53.230;10.444;2024-01-15T18:00:51;0.80;99.90
12025;DHT22;6073;53.230;10.444;2024-01-15T18:03:16;0.80;99.90
12025;DHT22;6073;53.230;10.444;2024-01-15T18:05:42;0.80;99.90
12025;DHT22;6073;53.230;10.444;2024-01-15T18:08:08;0.80;99.90
12025;DHT22;6073;53.230;10.444;2024-01-15T18:10:34;0.80;99.90
12025;DHT22;6073;53.230;10.444;2024-01-15T18:12:59;0.80;99.90
12025;DHT22;6073;53.230;10.444;2024-01-15T18:15:25;0.80;99.90
12025;DHT22;6073;53.230;10.444;2024-01-15T18:17:51;0.80;99.90
12025;DHT22;6073;53.230;10.444;2024-01-15T18:20:17;0.80;99.90
12025;DHT22;6073;53.230;10.444;2024-01-15T18:22:43;0.70;99.90
12025;DHT22;6073;53.230;10.444;2024-01-15T18:25:08;0.70;99.90
12025;DHT22;6073;53.230;10.444;2024-01-15T18:27:34;0.70;99.90
12025;DHT22;6073;53.230;10.444;2024-01-15T18:30:00;0.70;99.90
12025;DHT22;6073;53.230;10.444;2024-01-15T18:32:25;0.70;99.90
12025;DHT22;6073;53.230;10.444;2024-01-15T18:34:51;0.70;99.90
12025;DHT22;6073;53.230;10.444;2024-01-15T18:37:17;0.70;99.90
12025;DHT22;6073;53.230;10.444;2024-01-15T18:39:44;0.70;99.90
12025;DHT22;6073;53.230;10.444;2024-01-15T18:42:10;0.70;99.90